createdAt,value
2017-10-23T00:02:04.983Z,11.12
2017-10-23T00:04:32.498Z,11.15
2017-10-23T00:07:00.015Z,10.70
2017-10-23T00:09:27.574Z,10.80
2017-10-23T00:11:55.629Z,10.91
2017-10-23T00:14:23.151Z,11.04
2017-10-23T00:16:50.714Z,11.38
2017-10-23T00:19:18.269Z,10.83
2017-10-23T00:21:45.805Z,11.11
2017-10-23T00:24:13.508Z,11.40
2017-10-23T00:26:41.014Z,11.25
2017-10-23T00:29:09.054Z,11.12
2017-10-23T00:31:37.534Z,11.21
2017-10-23T00:34:05.094Z,11.02
2017-10-23T00:36:32.614Z,10.97
2017-10-23T00:39:00.294Z,10.88
2017-10-23T00:41:27.813Z,10.86
2017-10-23T00:43:55.330Z,11.08
2017-10-23T00:46:23.076Z,11.12
2017-10-23T00:48:50.600Z,10.76
2017-10-23T00:51:18.110Z,10.96
2017-10-23T00:53:45.819Z,10.99
2017-10-23T00:56:13.336Z,10.88
2017-10-23T00:58:40.855Z,10.38
2017-10-23T01:01:08.439Z,10.45
2017-10-23T01:03:35.955Z,10.55
2017-10-23T01:06:03.476Z,10.29
2017-10-23T01:08:31.210Z,10.62
2017-10-23T01:10:58.732Z,10.56
2017-10-23T01:13:26.259Z,10.60
2017-10-23T01:15:53.988Z,10.96
2017-10-23T01:18:21.507Z,11.08
2017-10-23T01:20:49.023Z,10.93
2017-10-23T01:23:16.675Z,11.00
2017-10-23T01:25:44.208Z,10.78
2017-10-23T01:28:11.714Z,10.83
2017-10-23T01:30:39.546Z,10.69
2017-10-23T01:33:07.070Z,10.97
2017-10-23T01:35:34.591Z,10.71
2017-10-23T01:38:02.131Z,11.03
2017-10-23T01:40:29.647Z,10.80
2017-10-23T01:42:57.186Z,10.62
2017-10-23T01:45:24.920Z,10.77
2017-10-23T01:47:52.468Z,10.69
2017-10-23T01:50:19.988Z,10.68
2017-10-23T01:52:47.597Z,10.72
2017-10-23T01:55:15.112Z,10.49
2017-10-23T01:57:42.633Z,10.52
2017-10-23T02:00:10.525Z,10.75
2017-10-23T02:02:38.042Z,10.80
2017-10-23T02:05:05.567Z,11.05
2017-10-23T02:07:33.334Z,11.01
2017-10-23T02:10:00.856Z,10.79
2017-10-23T02:12:28.379Z,10.94
2017-10-23T02:14:55.950Z,10.99
2017-10-23T02:17:23.471Z,10.95
2017-10-23T02:19:50.996Z,11.15
2017-10-23T02:22:19.005Z,10.89
2017-10-23T02:24:46.522Z,10.91
2017-10-23T02:27:14.043Z,10.78
2017-10-23T02:29:41.599Z,10.89
2017-10-23T02:32:09.116Z,10.95
2017-10-23T02:34:36.638Z,10.90
2017-10-23T02:37:04.359Z,10.95
2017-10-23T02:39:31.877Z,11.07
2017-10-23T02:41:59.399Z,10.80
2017-10-23T02:44:26.959Z,10.86
2017-10-23T02:46:54.478Z,10.88
2017-10-23T02:49:22.000Z,10.96
2017-10-23T02:51:49.711Z,10.98
2017-10-23T02:54:17.227Z,10.79
2017-10-23T02:56:44.755Z,10.69
2017-10-23T02:59:12.495Z,10.21
2017-10-23T03:01:40.016Z,10.24
2017-10-23T03:04:07.542Z,10.38
2017-10-23T03:06:35.481Z,10.22
2017-10-23T03:09:03.004Z,10.11
2017-10-23T03:11:30.571Z,10.33
2017-10-23T03:13:58.355Z,10.15
2017-10-23T03:16:25.890Z,10.03
2017-10-23T03:18:53.423Z,10.14
2017-10-23T03:21:24.416Z,10.19
2017-10-23T03:23:51.935Z,10.06
2017-10-23T03:26:19.455Z,9.63
2017-10-23T03:28:47.377Z,9.88
2017-10-23T03:31:14.913Z,9.95
2017-10-23T03:33:42.422Z,9.62
2017-10-23T03:36:10.221Z,9.66
2017-10-23T03:38:37.731Z,9.73
2017-10-23T03:41:05.254Z,9.70
2017-10-23T03:43:32.824Z,9.83
2017-10-23T03:46:00.340Z,9.59
2017-10-23T03:48:27.855Z,9.72
2017-10-23T03:50:55.532Z,9.79
2017-10-23T03:53:23.042Z,9.65
2017-10-23T03:55:50.560Z,9.74
2017-10-23T03:58:18.116Z,9.92
2017-10-23T04:00:45.623Z,9.74
2017-10-23T04:03:13.148Z,9.80
2017-10-23T04:05:40.708Z,9.65
2017-10-23T04:08:08.222Z,9.65
2017-10-23T04:10:35.746Z,9.43
2017-10-23T04:13:03.312Z,9.65
2017-10-23T04:15:30.843Z,9.68
2017-10-23T04:17:58.366Z,9.73
2017-10-23T04:20:25.910Z,9.79
2017-10-23T04:22:53.451Z,9.65
2017-10-23T04:25:21.074Z,9.72
2017-10-23T04:27:48.619Z,9.76
2017-10-23T04:30:16.130Z,9.78
2017-10-23T04:32:43.639Z,9.85
2017-10-23T04:35:11.410Z,9.76
2017-10-23T04:37:38.923Z,9.79
2017-10-23T04:40:06.436Z,9.95
2017-10-23T04:42:34.119Z,9.60
2017-10-23T04:45:01.635Z,9.75
2017-10-23T04:47:29.148Z,9.93
2017-10-23T04:49:56.852Z,9.71
2017-10-23T04:52:31.445Z,9.89
2017-10-23T04:54:59.352Z,9.85
2017-10-23T04:57:26.871Z,10.01
2017-10-23T04:59:54.396Z,10.05
2017-10-23T05:02:22.964Z,10.09
2017-10-23T05:04:50.485Z,10.25
2017-10-23T05:07:18.004Z,10.32
2017-10-23T05:09:47.066Z,10.10
2017-10-23T05:12:14.630Z,10.26
2017-10-23T05:14:42.185Z,10.44
2017-10-23T05:17:09.744Z,10.39
2017-10-23T05:19:37.260Z,10.41
2017-10-23T05:22:04.779Z,10.41
2017-10-23T05:24:33.334Z,10.50
2017-10-23T05:27:00.882Z,10.57
2017-10-23T05:29:28.407Z,10.48
2017-10-23T05:31:55.986Z,10.34
2017-10-23T05:34:23.503Z,10.44
2017-10-23T05:36:51.025Z,10.48
2017-10-23T05:39:18.679Z,10.49
2017-10-23T05:41:46.198Z,10.52
2017-10-23T05:44:13.736Z,10.53
2017-10-23T05:46:41.296Z,10.52
2017-10-23T05:49:08.819Z,10.06
2017-10-23T05:51:36.352Z,10.30
2017-10-23T05:54:03.898Z,10.27
2017-10-23T05:56:31.409Z,10.36
2017-10-23T05:58:58.971Z,10.21
2017-10-23T06:01:26.562Z,10.04
2017-10-23T06:03:54.075Z,10.16
2017-10-23T06:06:21.595Z,10.22
2017-10-23T06:08:49.155Z,10.15
2017-10-23T06:11:16.676Z,10.15
2017-10-23T06:13:44.224Z,10.12
2017-10-23T06:16:11.984Z,10.25
2017-10-23T06:18:39.490Z,10.43
2017-10-23T06:21:07.092Z,10.39
2017-10-23T06:23:34.687Z,10.45
2017-10-23T06:26:02.220Z,10.49
2017-10-23T06:28:29.779Z,10.51
2017-10-23T06:30:57.535Z,10.77
2017-10-23T06:33:25.052Z,10.74
2017-10-23T06:35:52.572Z,10.61
2017-10-23T06:38:20.502Z,10.84
2017-10-23T06:40:48.027Z,10.60
2017-10-23T06:43:15.553Z,10.75
2017-10-23T06:45:43.307Z,10.81
2017-10-23T06:48:10.868Z,11.17
2017-10-23T06:50:39.214Z,11.35
2017-10-23T06:53:06.806Z,11.41
2017-10-23T06:55:34.327Z,11.27
2017-10-23T06:58:01.843Z,11.43
2017-10-23T07:00:29.585Z,11.75
2017-10-23T07:02:57.100Z,11.72
2017-10-23T07:05:24.630Z,11.89
2017-10-23T07:07:52.261Z,11.88
2017-10-23T07:10:19.821Z,11.86
2017-10-23T07:12:47.371Z,12.38
2017-10-23T07:15:15.123Z,12.50
2017-10-23T07:17:42.660Z,12.74
2017-10-23T07:20:10.181Z,12.58
2017-10-23T07:22:37.962Z,12.54
2017-10-23T07:25:05.482Z,12.19
2017-10-23T07:27:33.041Z,12.11
2017-10-23T07:30:00.806Z,12.47
2017-10-23T07:32:28.371Z,12.87
2017-10-23T07:34:55.923Z,12.80
2017-10-23T07:37:23.459Z,12.96
2017-10-23T07:39:50.980Z,12.59
2017-10-23T07:42:18.499Z,12.69
2017-10-23T07:44:46.261Z,12.50
2017-10-23T07:47:13.922Z,12.81
2017-10-23T07:49:41.439Z,12.79
2017-10-23T07:52:09.042Z,12.97
2017-10-23T07:54:36.601Z,12.97
2017-10-23T07:57:04.161Z,12.58
2017-10-23T07:59:31.820Z,13.05
2017-10-23T08:01:59.382Z,13.17
2017-10-23T08:04:26.940Z,12.92
2017-10-23T08:06:54.503Z,13.26
2017-10-23T08:09:22.057Z,13.05
2017-10-23T08:11:49.642Z,13.19
2017-10-23T08:14:17.379Z,13.15
2017-10-23T08:16:44.942Z,13.21
2017-10-23T08:19:12.499Z,13.50
2017-10-23T08:21:40.347Z,13.33
2017-10-23T08:24:08.146Z,13.44
2017-10-23T08:26:35.688Z,13.69
2017-10-23T08:29:03.392Z,13.92
2017-10-23T08:31:30.915Z,13.80
2017-10-23T08:33:58.480Z,13.30
2017-10-23T08:36:26.129Z,13.35
2017-10-23T08:38:53.687Z,13.32
2017-10-23T08:41:21.247Z,13.14
2017-10-23T08:43:48.804Z,13.78
2017-10-23T08:46:16.315Z,14.01
2017-10-23T08:48:43.839Z,13.96
2017-10-23T08:51:11.585Z,14.24
2017-10-23T08:53:39.367Z,14.76
2017-10-23T08:56:06.909Z,14.44
2017-10-23T08:58:34.466Z,14.18
2017-10-23T09:01:02.027Z,14.35
2017-10-23T09:03:29.585Z,14.97
2017-10-23T09:05:57.279Z,15.19
2017-10-23T09:08:24.807Z,16.21
2017-10-23T09:10:52.327Z,17.74
2017-10-23T09:13:19.924Z,18.62
2017-10-23T09:15:47.485Z,18.56
2017-10-23T09:18:15.003Z,19.30
2017-10-23T09:20:42.687Z,19.04
2017-10-23T09:23:10.280Z,18.39
2017-10-23T09:25:37.823Z,17.64
2017-10-23T09:28:05.590Z,17.52
2017-10-23T09:30:33.146Z,17.45
2017-10-23T09:33:00.683Z,17.45
2017-10-23T09:35:28.352Z,16.77
2017-10-23T09:37:55.872Z,16.33
2017-10-23T09:40:23.390Z,15.29
2017-10-23T09:42:51.124Z,14.84
2017-10-23T09:45:18.651Z,14.45
2017-10-23T09:47:46.167Z,14.31
2017-10-23T09:50:13.925Z,13.65
2017-10-23T09:52:41.484Z,14.06
2017-10-23T09:55:09.044Z,14.06
2017-10-23T09:57:36.808Z,14.45
2017-10-23T10:00:04.366Z,14.46
2017-10-23T10:02:31.925Z,14.44
2017-10-23T10:04:59.505Z,14.20
2017-10-23T10:07:27.030Z,14.13
2017-10-23T10:09:54.551Z,13.99
2017-10-23T10:12:22.252Z,14.13
2017-10-23T10:14:49.775Z,14.38
2017-10-23T10:17:18.284Z,14.90
2017-10-23T10:19:46.080Z,14.67
2017-10-23T10:22:13.607Z,14.80
2017-10-23T10:24:41.143Z,14.68
2017-10-23T10:27:08.723Z,14.58
2017-10-23T10:29:36.243Z,14.80
2017-10-23T10:32:03.756Z,14.81
2017-10-23T10:34:31.627Z,14.35
2017-10-23T10:36:59.187Z,14.34
2017-10-23T10:39:26.716Z,14.51
2017-10-23T10:41:54.804Z,14.46
2017-10-23T10:44:22.376Z,14.82
2017-10-23T10:46:49.935Z,14.74
2017-10-23T10:49:17.680Z,15.05
2017-10-23T10:51:45.206Z,15.21
2017-10-23T10:54:12.724Z,15.63
2017-10-23T10:56:40.478Z,15.86
2017-10-23T10:59:08.953Z,15.68
2017-10-23T11:01:36.475Z,15.50
2017-10-23T11:04:04.270Z,15.84
2017-10-23T11:06:31.791Z,15.75
2017-10-23T11:08:59.318Z,16.05
2017-10-23T11:11:27.044Z,15.51
2017-10-23T11:13:54.564Z,16.02
2017-10-23T11:16:22.084Z,16.26
2017-10-23T11:18:49.654Z,15.89
2017-10-23T11:21:17.196Z,16.17
2017-10-23T11:23:44.755Z,15.91
2017-10-23T11:26:12.723Z,15.93
2017-10-23T11:28:40.232Z,15.56
2017-10-23T11:31:07.750Z,15.61
2017-10-23T11:33:35.488Z,16.14
2017-10-23T11:36:03.004Z,16.11
2017-10-23T11:38:30.622Z,16.36
2017-10-23T11:40:58.396Z,16.19
2017-10-23T11:43:25.945Z,16.66
2017-10-23T11:45:53.503Z,16.84
2017-10-23T11:48:21.247Z,16.74
2017-10-23T11:50:48.827Z,16.81
2017-10-23T11:53:16.344Z,16.59
2017-10-23T11:55:43.945Z,16.72
2017-10-23T11:58:11.505Z,16.58
2017-10-23T12:00:39.167Z,16.37
2017-10-23T12:03:06.826Z,15.93
2017-10-23T12:05:34.352Z,15.86
2017-10-23T12:08:01.867Z,15.98
2017-10-23T12:10:31.451Z,15.80
2017-10-23T12:13:00.750Z,16.21
2017-10-23T12:15:28.310Z,16.30
2017-10-23T12:17:56.051Z,16.35
2017-10-23T12:20:23.568Z,16.17
2017-10-23T12:22:52.031Z,16.26
2017-10-23T12:25:19.960Z,17.03
2017-10-23T12:27:47.497Z,17.14
2017-10-23T12:30:15.021Z,17.59
2017-10-23T12:32:42.762Z,17.57
2017-10-23T12:35:10.318Z,16.64
2017-10-23T12:37:37.831Z,16.34
2017-10-23T12:40:05.725Z,16.47
2017-10-23T12:42:33.239Z,16.19
2017-10-23T12:45:00.755Z,15.87
2017-10-23T12:47:28.323Z,16.14
2017-10-23T12:49:55.830Z,16.03
2017-10-23T12:52:23.372Z,16.50
2017-10-23T12:54:50.996Z,17.12
2017-10-23T12:57:18.508Z,16.97
2017-10-23T12:59:46.222Z,17.24
2017-10-23T13:02:13.979Z,17.88
2017-10-23T13:04:41.487Z,17.27
2017-10-23T13:07:09.008Z,17.07
2017-10-23T13:09:36.700Z,16.49
2017-10-23T13:12:04.234Z,16.73
2017-10-23T13:14:31.752Z,16.93
2017-10-23T13:16:59.427Z,17.00
2017-10-23T13:19:26.940Z,17.17
2017-10-23T13:21:55.603Z,16.92
2017-10-23T13:24:23.184Z,16.37
2017-10-23T13:26:50.719Z,16.72
2017-10-23T13:29:18.270Z,16.99
2017-10-23T13:31:46.027Z,16.54
2017-10-23T13:34:13.600Z,15.87
2017-10-23T13:36:41.138Z,15.91
2017-10-23T13:39:09.210Z,16.37
2017-10-23T13:41:36.768Z,16.20
2017-10-23T13:44:04.278Z,15.92
2017-10-23T13:46:32.197Z,16.05
2017-10-23T13:48:59.770Z,16.14
2017-10-23T13:51:27.312Z,16.20
2017-10-23T13:53:55.155Z,15.82
2017-10-23T13:56:22.737Z,15.70
2017-10-23T13:58:50.297Z,15.00
2017-10-23T14:01:17.938Z,15.18
2017-10-23T14:03:45.447Z,15.37
2017-10-23T14:06:12.976Z,15.60
2017-10-23T14:08:41.042Z,15.46
2017-10-23T14:11:09.690Z,15.29
2017-10-23T14:13:37.203Z,15.49
2017-10-23T14:16:04.932Z,15.99
2017-10-23T14:18:33.467Z,16.01
2017-10-23T14:21:01.020Z,15.86
2017-10-23T14:23:28.959Z,15.87
2017-10-23T14:25:56.480Z,15.57
2017-10-23T14:28:24.001Z,15.28
2017-10-23T14:30:51.825Z,14.92
2017-10-23T14:33:19.503Z,15.17
2017-10-23T14:35:47.168Z,15.09
2017-10-23T14:38:14.735Z,15.16
2017-10-23T14:40:42.251Z,15.43
2017-10-23T14:43:09.845Z,15.05
2017-10-23T14:45:37.400Z,15.13
2017-10-23T14:48:05.077Z,14.89
2017-10-23T14:50:32.839Z,14.95
2017-10-23T14:53:00.795Z,15.12
2017-10-23T14:55:28.764Z,14.98
2017-10-23T14:57:56.448Z,15.20
2017-10-23T15:00:24.139Z,14.75
2017-10-23T15:02:51.791Z,14.77
2017-10-23T15:05:19.508Z,14.57
2017-10-23T15:07:47.312Z,14.40
2017-10-23T15:10:15.056Z,14.70
2017-10-23T15:12:42.619Z,14.26
2017-10-23T15:15:10.363Z,14.36
2017-10-23T15:17:37.967Z,14.51
2017-10-23T15:20:05.569Z,14.63
2017-10-23T15:22:33.346Z,14.60
2017-10-23T15:25:00.855Z,14.61
2017-10-23T15:27:28.379Z,14.36
2017-10-23T15:29:56.108Z,14.24
2017-10-23T15:32:23.638Z,14.55
2017-10-23T15:34:51.244Z,14.41
2017-10-23T15:37:18.937Z,14.14
2017-10-23T15:39:46.490Z,14.15
2017-10-23T15:42:14.248Z,14.42
2017-10-23T15:44:42.194Z,14.33
2017-10-23T15:47:09.743Z,14.09
2017-10-23T15:49:37.267Z,14.20
2017-10-23T15:52:04.959Z,14.13
2017-10-23T15:54:32.483Z,14.15
2017-10-23T15:57:00.081Z,14.19
2017-10-23T15:59:27.675Z,13.98
2017-10-23T16:01:55.215Z,13.95
2017-10-23T16:04:22.773Z,13.78
2017-10-23T16:06:50.516Z,13.77
2017-10-23T16:09:18.095Z,13.44
2017-10-23T16:11:45.620Z,13.13
2017-10-23T16:14:14.135Z,13.01
2017-10-23T16:16:41.716Z,12.65
2017-10-23T16:19:09.252Z,12.44
2017-10-23T16:21:36.843Z,12.54
2017-10-23T16:24:04.373Z,12.55
2017-10-23T16:26:31.940Z,12.45
2017-10-23T16:28:59.797Z,12.43
2017-10-23T16:31:27.357Z,12.55
2017-10-23T16:33:54.977Z,12.41
2017-10-23T16:36:22.616Z,12.22
2017-10-23T16:38:50.139Z,12.41
2017-10-23T16:41:17.679Z,12.38
2017-10-23T16:43:45.358Z,12.24
2017-10-23T16:46:12.917Z,12.33
2017-10-23T16:48:40.477Z,12.61
2017-10-23T16:51:08.344Z,12.53
2017-10-23T16:53:35.902Z,12.55
2017-10-23T16:56:03.460Z,12.45
2017-10-23T16:58:31.328Z,12.56
2017-10-23T17:00:58.989Z,12.39
2017-10-23T17:03:26.775Z,12.40
2017-10-23T17:05:54.721Z,12.35
2017-10-23T17:08:22.293Z,12.20
2017-10-23T17:10:52.093Z,12.43
2017-10-23T17:13:20.142Z,12.16
2017-10-23T17:15:48.492Z,12.22
2017-10-23T17:18:16.408Z,12.32
2017-10-23T17:20:44.490Z,12.16
2017-10-23T17:23:12.242Z,12.10
2017-10-23T17:25:40.110Z,11.97
2017-10-23T17:28:08.431Z,11.86
2017-10-23T17:30:38.070Z,11.87
2017-10-23T17:33:06.064Z,11.97
2017-10-23T17:35:34.040Z,11.92
2017-10-23T17:38:02.207Z,11.78
2017-10-23T17:40:29.978Z,11.55
2017-10-23T17:42:57.732Z,11.83
2017-10-23T17:45:25.427Z,11.58
2017-10-23T17:47:53.261Z,11.77
2017-10-23T17:50:21.548Z,11.92
2017-10-23T17:52:49.322Z,12.11
2017-10-23T17:55:17.209Z,12.08
2017-10-23T17:57:45.240Z,12.08
2017-10-23T18:00:13.737Z,11.97
2017-10-23T18:02:41.569Z,11.92
2017-10-23T18:05:09.607Z,12.01
2017-10-23T18:07:37.526Z,12.16
2017-10-23T18:10:05.285Z,12.17
2017-10-23T18:12:32.998Z,12.00
2017-10-23T18:15:01.044Z,12.20
2017-10-23T18:17:28.796Z,12.13
2017-10-23T18:19:56.541Z,12.40
2017-10-23T18:22:24.578Z,12.29
2017-10-23T18:24:52.690Z,12.10
2017-10-23T18:27:20.575Z,12.38
2017-10-23T18:29:48.324Z,12.47
2017-10-23T18:32:16.085Z,12.45
2017-10-23T18:34:43.951Z,12.22
2017-10-23T18:37:11.713Z,12.21
2017-10-23T18:39:39.516Z,12.40
2017-10-23T18:42:07.345Z,12.26
2017-10-23T18:44:35.322Z,12.01
2017-10-23T18:47:03.096Z,11.97
2017-10-23T18:49:30.998Z,11.98
2017-10-23T18:51:58.829Z,12.29
2017-10-23T18:54:27.720Z,11.88
2017-10-23T18:56:55.874Z,12.04
2017-10-23T18:59:23.739Z,11.99
2017-10-23T19:01:52.345Z,11.97
2017-10-23T19:04:20.394Z,11.68
2017-10-23T19:06:48.260Z,11.90
2017-10-23T19:09:16.126Z,11.90
2017-10-23T19:11:44.215Z,12.07
2017-10-23T19:14:12.378Z,12.18
2017-10-23T19:16:40.236Z,11.86
2017-10-23T19:19:08.186Z,11.90
2017-10-23T19:21:36.255Z,12.07
2017-10-23T19:24:04.144Z,12.09
2017-10-23T19:26:32.343Z,12.13
2017-10-23T19:29:01.027Z,12.38
2017-10-23T19:31:28.983Z,12.37
2017-10-23T19:33:57.877Z,11.95
2017-10-23T19:36:25.727Z,12.28
2017-10-23T19:38:53.594Z,12.24
2017-10-23T19:41:21.476Z,12.37
2017-10-23T19:43:49.226Z,12.06
2017-10-23T19:46:18.034Z,12.40
2017-10-23T19:48:45.981Z,12.73
2017-10-23T19:51:13.949Z,13.00
2017-10-23T19:53:41.770Z,12.80
2017-10-23T19:56:09.963Z,12.73
2017-10-23T19:58:37.788Z,12.88
2017-10-23T20:01:06.233Z,12.75
2017-10-23T20:03:34.920Z,12.70
2017-10-23T20:06:02.684Z,12.85
2017-10-23T20:08:30.447Z,13.00
2017-10-23T20:10:58.314Z,12.81
2017-10-23T20:13:25.997Z,12.59
2017-10-23T20:15:53.768Z,12.66
2017-10-23T20:18:22.102Z,12.55
2017-10-23T20:20:49.834Z,12.71
2017-10-23T20:23:17.672Z,12.46
2017-10-23T20:25:46.049Z,12.35
2017-10-23T20:28:13.707Z,12.24
2017-10-23T20:30:41.559Z,12.27
2017-10-23T20:33:09.419Z,12.40
2017-10-23T20:35:36.977Z,12.53
2017-10-23T20:38:05.577Z,12.38
2017-10-23T20:40:33.179Z,12.61
2017-10-23T20:43:00.885Z,12.56
2017-10-23T20:45:28.442Z,12.32
2017-10-23T20:47:56.245Z,12.44
2017-10-23T20:50:24.665Z,12.39
2017-10-23T20:52:52.946Z,12.51
2017-10-23T20:55:20.624Z,12.59
2017-10-23T20:57:49.104Z,12.37
2017-10-23T21:00:16.615Z,12.05
2017-10-23T21:02:44.307Z,12.20
2017-10-23T21:05:11.823Z,12.37
2017-10-23T21:07:39.423Z,12.39
2017-10-23T21:10:07.399Z,12.51
2017-10-23T21:12:34.973Z,12.23
2017-10-23T21:15:02.511Z,12.21
2017-10-23T21:17:30.392Z,12.37
2017-10-23T21:19:57.906Z,12.58
2017-10-23T21:22:25.452Z,12.45
2017-10-23T21:24:53.074Z,12.08
2017-10-23T21:27:20.603Z,12.25
2017-10-23T21:29:48.213Z,12.15
2017-10-23T21:32:16.059Z,12.03
2017-10-23T21:34:43.618Z,12.23
2017-10-23T21:37:11.191Z,12.16
2017-10-23T21:39:38.941Z,11.99
2017-10-23T21:42:06.919Z,12.19
2017-10-23T21:44:34.468Z,12.47
2017-10-23T21:47:10.915Z,12.38
2017-10-23T21:49:38.443Z,12.16
2017-10-23T21:52:05.963Z,12.08
2017-10-23T21:54:33.695Z,12.42
2017-10-23T21:57:01.216Z,12.31
2017-10-23T21:59:28.742Z,12.34
2017-10-23T22:01:56.302Z,12.43
2017-10-23T22:04:23.832Z,12.19
2017-10-23T22:06:51.353Z,12.20
2017-10-23T22:09:18.970Z,12.34
2017-10-23T22:11:46.528Z,12.28
2017-10-23T22:14:14.087Z,12.14
2017-10-23T22:16:42.361Z,11.94
2017-10-23T22:19:09.873Z,12.11
2017-10-23T22:21:37.399Z,12.32
2017-10-23T22:24:04.976Z,12.26
2017-10-23T22:26:32.502Z,12.47
2017-10-23T22:29:00.078Z,11.99
2017-10-23T22:31:27.810Z,12.25
2017-10-23T22:33:55.327Z,12.13
2017-10-23T22:36:22.851Z,12.08
2017-10-23T22:38:50.415Z,12.24
2017-10-23T22:41:17.964Z,12.56
2017-10-23T22:43:45.512Z,12.49
2017-10-23T22:46:13.454Z,12.05
2017-10-23T22:48:40.973Z,12.53
2017-10-23T22:51:08.491Z,12.52
2017-10-23T22:53:36.055Z,12.73
2017-10-23T22:56:03.620Z,12.78
2017-10-23T22:58:31.175Z,12.55
2017-10-23T23:00:59.122Z,12.41
2017-10-23T23:03:26.641Z,12.59
2017-10-23T23:05:54.184Z,12.56
2017-10-23T23:08:21.831Z,12.57
2017-10-23T23:10:49.348Z,12.22
2017-10-23T23:13:16.865Z,12.42
2017-10-23T23:15:44.423Z,12.45
2017-10-23T23:18:11.947Z,12.29
2017-10-23T23:20:39.468Z,12.43
2017-10-23T23:23:07.276Z,12.34
2017-10-23T23:25:34.835Z,12.35
2017-10-23T23:28:02.353Z,12.45
2017-10-23T23:30:30.260Z,12.49
2017-10-23T23:32:57.775Z,12.48
2017-10-23T23:35:25.299Z,12.44
2017-10-23T23:37:53.023Z,12.64
2017-10-23T23:40:20.540Z,12.85
2017-10-23T23:42:48.058Z,12.80
2017-10-23T23:45:15.620Z,12.81
2017-10-23T23:47:43.175Z,12.80
2017-10-23T23:50:10.733Z,12.50
2017-10-23T23:52:38.887Z,12.20
2017-10-23T23:55:06.411Z,12.12
2017-10-23T23:57:33.932Z,12.50
